sensor_id;sensor_type;location;lat;lon;timestamp;temperature;humidity
12006;DHT22;6062;47.294;12.182;2023-02-26T00:01:21;-3.60;60.50
12006;DHT22;6062;47.294;12.182;2023-02-26T00:03:49;-3.60;60.50
12006;DHT22;6062;47.294;12.182;2023-02-26T00:06:16;-3.70;60.50
12006;DHT22;6062;47.294;12.182;2023-02-26T00:08:43;-3.70;60.60
12006;DHT22;6062;47.294;12.182;2023-02-26T00:11:10;-3.70;60.70
12006;DHT22;6062;47.294;12.182;2023-02-26T00:13:37;-3.70;60.90
12006;DHT22;6062;47.294;12.182;2023-02-26T00:16:31;-3.70;61.10
12006;DHT22;6062;47.294;12.182;2023-02-26T00:19:03;-3.80;61.30
12006;DHT22;6062;47.294;12.182;2023-02-26T00:21:31;-3.90;61.60
12006;DHT22;6062;47.294;12.182;2023-02-26T00:23:58;-3.90;61.60
12006;DHT22;6062;47.294;12.182;2023-02-26T00:26:25;-4.00;61.60
12006;DHT22;6062;47.294;12.182;2023-02-26T00:28:51;-4.00;61.90
12006;DHT22;6062;47.294;12.182;2023-02-26T00:31:18;-4.10;61.80
12006;DHT22;6062;47.294;12.182;2023-02-26T00:33:46;-4.10;61.90
12006;DHT22;6062;47.294;12.182;2023-02-26T00:36:34;-4.10;62.10
12006;DHT22;6062;47.294;12.182;2023-02-26T00:39:34;-4.10;62.20
12006;DHT22;6062;47.294;12.182;2023-02-26T00:42:08;-4.10;62.10
12006;DHT22;6062;47.294;12.182;2023-02-26T00:44:34;-4.10;62.00
12006;DHT22;6062;47.294;12.182;2023-02-26T00:49:52;-4.20;62.20
12006;DHT22;6062;47.294;12.182;2023-02-26T00:55:27;-4.30;62.20
12006;DHT22;6062;47.294;12.182;2023-02-26T00:57:54;-4.40;62.10
12006;DHT22;6062;47.294;12.182;2023-02-26T01:00:20;-4.50;62.40
12006;DHT22;6062;47.294;12.182;2023-02-26T01:02:47;-4.60;62.50
12006;DHT22;6062;47.294;12.182;2023-02-26T01:05:14;-4.70;62.60
12006;DHT22;6062;47.294;12.182;2023-02-26T01:10:37;-4.90;63.10
12006;DHT22;6062;47.294;12.182;2023-02-26T01:13:03;-4.90;63.20
12006;DHT22;6062;47.294;12.182;2023-02-26T01:15:29;-5.00;63.20
12006;DHT22;6062;47.294;12.182;2023-02-26T01:20:43;-5.10;63.50
12006;DHT22;6062;47.294;12.182;2023-02-26T01:23:19;-5.20;63.70
12006;DHT22;6062;47.294;12.182;2023-02-26T01:25:55;-5.30;63.80
12006;DHT22;6062;47.294;12.182;2023-02-26T01:28:24;-5.30;64.10
12006;DHT22;6062;47.294;12.182;2023-02-26T01:30:53;-5.40;64.30
12006;DHT22;6062;47.294;12.182;2023-02-26T01:33:28;-5.40;64.60
12006;DHT22;6062;47.294;12.182;2023-02-26T01:36:02;-5.40;64.70
12006;DHT22;6062;47.294;12.182;2023-02-26T01:38:42;-5.40;64.60
12006;DHT22;6062;47.294;12.182;2023-02-26T01:41:28;-5.50;64.40
12006;DHT22;6062;47.294;12.182;2023-02-26T01:49:52;-5.60;64.40
12006;DHT22;6062;47.294;12.182;2023-02-26T01:55:20;-5.70;64.50
12006;DHT22;6062;47.294;12.182;2023-02-26T01:57:48;-5.80;64.50
12006;DHT22;6062;47.294;12.182;2023-02-26T02:00:17;-5.80;64.50
12006;DHT22;6062;47.294;12.182;2023-02-26T02:02:43;-5.90;64.40
12006;DHT22;6062;47.294;12.182;2023-02-26T02:08:03;-6.00;64.60
12006;DHT22;6062;47.294;12.182;2023-02-26T02:10:29;-6.10;64.40
12006;DHT22;6062;47.294;12.182;2023-02-26T02:15:44;-6.30;64.50
12006;DHT22;6062;47.294;12.182;2023-02-26T02:18:29;-6.40;64.60
12006;DHT22;6062;47.294;12.182;2023-02-26T02:26:40;-6.60;64.80
12006;DHT22;6062;47.294;12.182;2023-02-26T02:31:59;-6.80;65.10
12006;DHT22;6062;47.294;12.182;2023-02-26T02:37:36;-6.90;65.20
12006;DHT22;6062;47.294;12.182;2023-02-26T02:40:20;-6.90;65.30
12006;DHT22;6062;47.294;12.182;2023-02-26T02:43:12;-6.90;65.30
12006;DHT22;6062;47.294;12.182;2023-02-26T02:46:05;-6.90;65.40
12006;DHT22;6062;47.294;12.182;2023-02-26T02:48:38;-6.90;65.50
12006;DHT22;6062;47.294;12.182;2023-02-26T02:51:20;-7.00;65.40
12006;DHT22;6062;47.294;12.182;2023-02-26T02:54:13;-7.00;65.60
12006;DHT22;6062;47.294;12.182;2023-02-26T02:59:33;-7.10;65.80
12006;DHT22;6062;47.294;12.182;2023-02-26T03:04:41;-7.20;65.90
12006;DHT22;6062;47.294;12.182;2023-02-26T03:07:08;-7.20;65.90
12006;DHT22;6062;47.294;12.182;2023-02-26T03:09:33;-7.20;66.10
12006;DHT22;6062;47.294;12.182;2023-02-26T03:11:59;-7.30;66.20
12006;DHT22;6062;47.294;12.182;2023-02-26T03:14:26;-7.30;66.30
12006;DHT22;6062;47.294;12.182;2023-02-26T03:20:08;-7.40;66.40
12006;DHT22;6062;47.294;12.182;2023-02-26T03:31:21;-7.50;67.00
12006;DHT22;6062;47.294;12.182;2023-02-26T03:33:56;-7.40;66.90
12006;DHT22;6062;47.294;12.182;2023-02-26T03:36:34;-7.30;67.00
12006;DHT22;6062;47.294;12.182;2023-02-26T03:39:06;-7.40;66.90
12006;DHT22;6062;47.294;12.182;2023-02-26T03:41:44;-7.30;66.60
12006;DHT22;6062;47.294;12.182;2023-02-26T03:44:26;-7.30;66.40
12006;DHT22;6062;47.294;12.182;2023-02-26T03:47:02;-7.30;66.30
12006;DHT22;6062;47.294;12.182;2023-02-26T03:49:39;-7.30;66.50
12006;DHT22;6062;47.294;12.182;2023-02-26T03:52:10;-7.30;66.80
12006;DHT22;6062;47.294;12.182;2023-02-26T03:54:42;-7.20;66.90
12006;DHT22;6062;47.294;12.182;2023-02-26T03:57:16;-7.20;67.30
12006;DHT22;6062;47.294;12.182;2023-02-26T03:59:42;-7.10;67.30
12006;DHT22;6062;47.294;12.182;2023-02-26T04:04:51;-7.00;67.30
12006;DHT22;6062;47.294;12.182;2023-02-26T04:07:21;-7.00;67.70
12006;DHT22;6062;47.294;12.182;2023-02-26T04:09:50;-6.90;67.90
12006;DHT22;6062;47.294;12.182;2023-02-26T04:12:26;-6.90;68.10
12006;DHT22;6062;47.294;12.182;2023-02-26T04:14:54;-6.90;68.40
12006;DHT22;6062;47.294;12.182;2023-02-26T04:17:21;-6.80;68.40
12006;DHT22;6062;47.294;12.182;2023-02-26T04:19:47;-6.80;68.20
12006;DHT22;6062;47.294;12.182;2023-02-26T04:22:12;-6.80;68.10
12006;DHT22;6062;47.294;12.182;2023-02-26T04:24:38;-6.70;68.10
12006;DHT22;6062;47.294;12.182;2023-02-26T04:27:04;-6.70;67.80
12006;DHT22;6062;47.294;12.182;2023-02-26T04:29:30;-6.70;67.10
12006;DHT22;6062;47.294;12.182;2023-02-26T04:31:55;-6.60;66.70
12006;DHT22;6062;47.294;12.182;2023-02-26T04:34:21;-6.70;66.40
12006;DHT22;6062;47.294;12.182;2023-02-26T04:36:47;-6.70;66.10
12006;DHT22;6062;47.294;12.182;2023-02-26T04:39:12;-6.70;65.80
12006;DHT22;6062;47.294;12.182;2023-02-26T04:41:39;-6.70;65.40
12006;DHT22;6062;47.294;12.182;2023-02-26T04:44:04;-6.70;65.40
12006;DHT22;6062;47.294;12.182;2023-02-26T04:46:31;-6.70;65.30
12006;DHT22;6062;47.294;12.182;2023-02-26T04:48:57;-6.70;65.30
12006;DHT22;6062;47.294;12.182;2023-02-26T04:51:24;-6.70;65.40
12006;DHT22;6062;47.294;12.182;2023-02-26T04:53:50;-6.70;65.40
12006;DHT22;6062;47.294;12.182;2023-02-26T04:56:15;-6.80;65.20
12006;DHT22;6062;47.294;12.182;2023-02-26T04:58:41;-6.80;65.20
12006;DHT22;6062;47.294;12.182;2023-02-26T05:01:07;-6.80;65.20
12006;DHT22;6062;47.294;12.182;2023-02-26T05:03:33;-6.80;65.10
12006;DHT22;6062;47.294;12.182;2023-02-26T05:05:58;-6.90;65.00
12006;DHT22;6062;47.294;12.182;2023-02-26T05:08:24;-6.90;65.00
12006;DHT22;6062;47.294;12.182;2023-02-26T05:10:51;-6.90;65.00
12006;DHT22;6062;47.294;12.182;2023-02-26T05:13:18;-6.90;65.00
12006;DHT22;6062;47.294;12.182;2023-02-26T05:15:44;-7.00;64.90
12006;DHT22;6062;47.294;12.182;2023-02-26T05:18:10;-7.00;65.00
12006;DHT22;6062;47.294;12.182;2023-02-26T05:20:36;-7.00;65.20
12006;DHT22;6062;47.294;12.182;2023-02-26T05:23:02;-7.00;65.50
12006;DHT22;6062;47.294;12.182;2023-02-26T05:25:28;-7.00;65.50
12006;DHT22;6062;47.294;12.182;2023-02-26T05:27:54;-7.00;65.80
12006;DHT22;6062;47.294;12.182;2023-02-26T05:30:20;-7.00;66.10
12006;DHT22;6062;47.294;12.182;2023-02-26T05:32:46;-7.00;66.00
12006;DHT22;6062;47.294;12.182;2023-02-26T05:35:13;-7.00;66.10
12006;DHT22;6062;47.294;12.182;2023-02-26T05:37:39;-6.90;66.00
12006;DHT22;6062;47.294;12.182;2023-02-26T05:40:07;-6.90;65.90
12006;DHT22;6062;47.294;12.182;2023-02-26T05:42:38;-6.90;66.10
12006;DHT22;6062;47.294;12.182;2023-02-26T05:45:05;-6.90;66.20
12006;DHT22;6062;47.294;12.182;2023-02-26T05:47:32;-6.80;66.50
12006;DHT22;6062;47.294;12.182;2023-02-26T05:49:58;-6.80;66.60
12006;DHT22;6062;47.294;12.182;2023-02-26T05:52:24;-6.80;66.50
12006;DHT22;6062;47.294;12.182;2023-02-26T05:54:50;-6.70;66.40
12006;DHT22;6062;47.294;12.182;2023-02-26T05:57:15;-6.70;66.40
12006;DHT22;6062;47.294;12.182;2023-02-26T05:59:41;-6.70;66.50
12006;DHT22;6062;47.294;12.182;2023-02-26T06:02:07;-6.70;67.30
12006;DHT22;6062;47.294;12.182;2023-02-26T06:04:33;-6.60;66.80
12006;DHT22;6062;47.294;12.182;2023-02-26T06:06:59;-6.60;66.60
12006;DHT22;6062;47.294;12.182;2023-02-26T06:09:24;-6.60;66.40
12006;DHT22;6062;47.294;12.182;2023-02-26T06:11:50;-6.50;66.30
12006;DHT22;6062;47.294;12.182;2023-02-26T06:14:15;-6.50;66.00
12006;DHT22;6062;47.294;12.182;2023-02-26T06:16:41;-6.50;65.50
12006;DHT22;6062;47.294;12.182;2023-02-26T06:19:07;-6.50;65.10
12006;DHT22;6062;47.294;12.182;2023-02-26T06:21:33;-6.50;64.70
12006;DHT22;6062;47.294;12.182;2023-02-26T06:23:58;-6.50;64.40
12006;DHT22;6062;47.294;12.182;2023-02-26T06:26:24;-6.60;64.90
12006;DHT22;6062;47.294;12.182;2023-02-26T06:28:50;-6.50;64.30
12006;DHT22;6062;47.294;12.182;2023-02-26T06:31:16;-6.60;64.00
12006;DHT22;6062;47.294;12.182;2023-02-26T06:33:41;-6.60;63.90
12006;DHT22;6062;47.294;12.182;2023-02-26T06:36:07;-6.60;63.80
12006;DHT22;6062;47.294;12.182;2023-02-26T06:38:33;-6.60;63.70
12006;DHT22;6062;47.294;12.182;2023-02-26T06:40:59;-6.70;63.60
12006;DHT22;6062;47.294;12.182;2023-02-26T06:43:24;-6.70;63.50
12006;DHT22;6062;47.294;12.182;2023-02-26T06:45:50;-6.70;63.50
12006;DHT22;6062;47.294;12.182;2023-02-26T06:48:16;-6.70;63.50
12006;DHT22;6062;47.294;12.182;2023-02-26T06:50:41;-6.70;63.60
12006;DHT22;6062;47.294;12.182;2023-02-26T06:53:07;-6.70;63.70
12006;DHT22;6062;47.294;12.182;2023-02-26T06:55:33;-6.70;63.80
12006;DHT22;6062;47.294;12.182;2023-02-26T06:57:59;-6.70;63.60
12006;DHT22;6062;47.294;12.182;2023-02-26T07:00:25;-6.80;63.50
12006;DHT22;6062;47.294;12.182;2023-02-26T07:02:51;-6.80;63.60
12006;DHT22;6062;47.294;12.182;2023-02-26T07:05:17;-6.80;63.50
12006;DHT22;6062;47.294;12.182;2023-02-26T07:07:43;-6.80;63.20
12006;DHT22;6062;47.294;12.182;2023-02-26T07:10:10;-6.80;63.40
12006;DHT22;6062;47.294;12.182;2023-02-26T07:12:37;-6.90;63.70
12006;DHT22;6062;47.294;12.182;2023-02-26T07:15:04;-6.90;63.70
12006;DHT22;6062;47.294;12.182;2023-02-26T07:17:31;-6.90;63.80
12006;DHT22;6062;47.294;12.182;2023-02-26T07:19:56;-6.90;64.00
12006;DHT22;6062;47.294;12.182;2023-02-26T07:22:22;-6.90;64.10
12006;DHT22;6062;47.294;12.182;2023-02-26T07:24:48;-6.90;63.80
12006;DHT22;6062;47.294;12.182;2023-02-26T07:27:16;-6.90;63.80
12006;DHT22;6062;47.294;12.182;2023-02-26T07:29:41;-6.90;63.80
12006;DHT22;6062;47.294;12.182;2023-02-26T07:32:07;-7.00;63.60
12006;DHT22;6062;47.294;12.182;2023-02-26T07:34:33;-7.10;63.70
12006;DHT22;6062;47.294;12.182;2023-02-26T07:36:59;-7.10;63.80
12006;DHT22;6062;47.294;12.182;2023-02-26T07:39:26;-7.20;64.10
12006;DHT22;6062;47.294;12.182;2023-02-26T07:41:52;-7.30;64.20
12006;DHT22;6062;47.294;12.182;2023-02-26T07:44:18;-7.30;64.50
12006;DHT22;6062;47.294;12.182;2023-02-26T07:46:43;-7.30;64.80
12006;DHT22;6062;47.294;12.182;2023-02-26T07:49:09;-7.40;65.00
12006;DHT22;6062;47.294;12.182;2023-02-26T07:51:35;-7.40;65.10
12006;DHT22;6062;47.294;12.182;2023-02-26T07:54:02;-7.40;65.10
12006;DHT22;6062;47.294;12.182;2023-02-26T07:56:27;-7.40;65.30
12006;DHT22;6062;47.294;12.182;2023-02-26T07:58:53;-7.40;65.30
12006;DHT22;6062;47.294;12.182;2023-02-26T08:01:19;-7.40;65.10
12006;DHT22;6062;47.294;12.182;2023-02-26T08:03:45;-7.40;65.10
12006;DHT22;6062;47.294;12.182;2023-02-26T08:06:10;-7.40;65.10
12006;DHT22;6062;47.294;12.182;2023-02-26T08:08:36;-7.40;65.20
12006;DHT22;6062;47.294;12.182;2023-02-26T08:11:02;-7.40;65.30
12006;DHT22;6062;47.294;12.182;2023-02-26T08:13:28;-7.40;65.70
12006;DHT22;6062;47.294;12.182;2023-02-26T08:15:53;-7.30;65.70
12006;DHT22;6062;47.294;12.182;2023-02-26T08:18:19;-7.20;65.40
12006;DHT22;6062;47.294;12.182;2023-02-26T08:20:45;-7.20;65.40
12006;DHT22;6062;47.294;12.182;2023-02-26T08:23:11;-7.20;65.90
12006;DHT22;6062;47.294;12.182;2023-02-26T08:25:37;-7.10;65.50
12006;DHT22;6062;47.294;12.182;2023-02-26T08:28:03;-7.10;65.50
12006;DHT22;6062;47.294;12.182;2023-02-26T08:30:29;-7.10;65.50
12006;DHT22;6062;47.294;12.182;2023-02-26T08:32:55;-7.00;65.30
12006;DHT22;6062;47.294;12.182;2023-02-26T08:35:21;-7.00;65.50
12006;DHT22;6062;47.294;12.182;2023-02-26T08:37:46;-6.90;65.50
12006;DHT22;6062;47.294;12.182;2023-02-26T08:40:12;-6.80;65.50
12006;DHT22;6062;47.294;12.182;2023-02-26T08:42:38;-6.70;64.90
12006;DHT22;6062;47.294;12.182;2023-02-26T08:45:05;-6.60;64.40
12006;DHT22;6062;47.294;12.182;2023-02-26T08:47:31;-6.50;64.30
12006;DHT22;6062;47.294;12.182;2023-02-26T08:49:57;-6.40;64.60
12006;DHT22;6062;47.294;12.182;2023-02-26T08:52:23;-6.30;64.30
12006;DHT22;6062;47.294;12.182;2023-02-26T08:54:49;-6.30;64.00
12006;DHT22;6062;47.294;12.182;2023-02-26T08:57:15;-6.20;64.00
12006;DHT22;6062;47.294;12.182;2023-02-26T08:59:41;-6.10;63.80
12006;DHT22;6062;47.294;12.182;2023-02-26T09:02:06;-6.00;63.60
12006;DHT22;6062;47.294;12.182;2023-02-26T09:04:35;-5.90;63.30
12006;DHT22;6062;47.294;12.182;2023-02-26T09:07:01;-5.90;62.80
12006;DHT22;6062;47.294;12.182;2023-02-26T09:09:27;-5.90;63.40
12006;DHT22;6062;47.294;12.182;2023-02-26T09:11:52;-5.90;62.50
12006;DHT22;6062;47.294;12.182;2023-02-26T09:14:18;-5.90;62.50
12006;DHT22;6062;47.294;12.182;2023-02-26T09:16:44;-5.90;62.60
12006;DHT22;6062;47.294;12.182;2023-02-26T09:19:10;-5.90;62.70
12006;DHT22;6062;47.294;12.182;2023-02-26T09:21:35;-5.90;62.60
12006;DHT22;6062;47.294;12.182;2023-02-26T09:24:01;-6.00;62.60
12006;DHT22;6062;47.294;12.182;2023-02-26T09:26:27;-6.00;62.90
12006;DHT22;6062;47.294;12.182;2023-02-26T09:28:53;-6.00;62.90
12006;DHT22;6062;47.294;12.182;2023-02-26T09:31:19;-5.90;62.90
12006;DHT22;6062;47.294;12.182;2023-02-26T09:33:44;-6.00;62.60
12006;DHT22;6062;47.294;12.182;2023-02-26T09:36:10;-6.00;62.30
12006;DHT22;6062;47.294;12.182;2023-02-26T09:38:36;-6.00;62.30
12006;DHT22;6062;47.294;12.182;2023-02-26T09:44:08;-6.00;61.70
12006;DHT22;6062;47.294;12.182;2023-02-26T09:49:39;-6.20;61.20
12006;DHT22;6062;47.294;12.182;2023-02-26T09:52:25;-6.30;61.90
12006;DHT22;6062;47.294;12.182;2023-02-26T09:55:08;-6.30;62.30
12006;DHT22;6062;47.294;12.182;2023-02-26T09:57:43;-6.40;62.90
12006;DHT22;6062;47.294;12.182;2023-02-26T10:00:33;-6.40;63.40
12006;DHT22;6062;47.294;12.182;2023-02-26T10:03:38;-6.40;63.80
12006;DHT22;6062;47.294;12.182;2023-02-26T10:06:29;-6.30;63.90
12006;DHT22;6062;47.294;12.182;2023-02-26T10:15:05;-6.00;63.70
12006;DHT22;6062;47.294;12.182;2023-02-26T10:23:27;-5.70;63.50
12006;DHT22;6062;47.294;12.182;2023-02-26T10:29:24;-5.50;62.40
12006;DHT22;6062;47.294;12.182;2023-02-26T10:37:58;-5.40;62.40
12006;DHT22;6062;47.294;12.182;2023-02-26T10:41:00;-5.30;62.50
12006;DHT22;6062;47.294;12.182;2023-02-26T10:46:57;-5.30;61.70
12006;DHT22;6062;47.294;12.182;2023-02-26T10:49:25;-5.30;61.60
12006;DHT22;6062;47.294;12.182;2023-02-26T10:51:56;-5.30;61.30
12006;DHT22;6062;47.294;12.182;2023-02-26T10:54:34;-5.40;61.50
12006;DHT22;6062;47.294;12.182;2023-02-26T10:57:20;-5.40;62.10
12006;DHT22;6062;47.294;12.182;2023-02-26T10:59:49;-5.30;62.00
12006;DHT22;6062;47.294;12.182;2023-02-26T11:05:30;-5.30;61.80
12006;DHT22;6062;47.294;12.182;2023-02-26T11:08:04;-5.30;61.60
12006;DHT22;6062;47.294;12.182;2023-02-26T11:10:47;-5.30;61.20
12006;DHT22;6062;47.294;12.182;2023-02-26T11:13:16;-5.30;61.30
12006;DHT22;6062;47.294;12.182;2023-02-26T11:15:46;-5.30;61.60
12006;DHT22;6062;47.294;12.182;2023-02-26T11:18:19;-5.20;61.60
12006;DHT22;6062;47.294;12.182;2023-02-26T11:20:48;-5.10;61.40
12006;DHT22;6062;47.294;12.182;2023-02-26T11:23:21;-5.00;61.40
12006;DHT22;6062;47.294;12.182;2023-02-26T11:25:57;-4.90;61.60
12006;DHT22;6062;47.294;12.182;2023-02-26T11:28:42;-4.70;61.70
12006;DHT22;6062;47.294;12.182;2023-02-26T11:31:11;-4.50;61.90
12006;DHT22;6062;47.294;12.182;2023-02-26T11:33:43;-4.30;61.50
12006;DHT22;6062;47.294;12.182;2023-02-26T11:36:16;-4.10;60.40
12006;DHT22;6062;47.294;12.182;2023-02-26T11:39:20;-4.10;60.20
12006;DHT22;6062;47.294;12.182;2023-02-26T11:41:38;-4.00;60.50
12006;DHT22;6062;47.294;12.182;2023-02-26T11:44:13;-3.80;60.50
12006;DHT22;6062;47.294;12.182;2023-02-26T11:47:02;-3.70;60.40
12006;DHT22;6062;47.294;12.182;2023-02-26T11:49:31;-3.50;60.30
12006;DHT22;6062;47.294;12.182;2023-02-26T11:52:53;-3.30;60.10
12006;DHT22;6062;47.294;12.182;2023-02-26T11:55:16;-3.10;59.80
12006;DHT22;6062;47.294;12.182;2023-02-26T11:57:58;-2.90;59.10
12006;DHT22;6062;47.294;12.182;2023-02-26T12:00:34;-2.90;58.10
12006;DHT22;6062;47.294;12.182;2023-02-26T12:03:04;-2.90;57.60
12006;DHT22;6062;47.294;12.182;2023-02-26T12:05:33;-2.90;57.10
12006;DHT22;6062;47.294;12.182;2023-02-26T12:08:03;-3.00;56.70
12006;DHT22;6062;47.294;12.182;2023-02-26T12:10:50;-3.20;56.80
12006;DHT22;6062;47.294;12.182;2023-02-26T12:25:37;-3.70;57.50
12006;DHT22;6062;47.294;12.182;2023-02-26T12:28:36;-3.80;57.60
12006;DHT22;6062;47.294;12.182;2023-02-26T12:31:45;-3.90;57.50
12006;DHT22;6062;47.294;12.182;2023-02-26T12:34:47;-4.00;57.20
12006;DHT22;6062;47.294;12.182;2023-02-26T12:37:34;-4.10;57.60
12006;DHT22;6062;47.294;12.182;2023-02-26T12:40:14;-4.10;58.20
12006;DHT22;6062;47.294;12.182;2023-02-26T12:52:34;-4.20;58.20
12006;DHT22;6062;47.294;12.182;2023-02-26T12:55:09;-4.20;57.30
12006;DHT22;6062;47.294;12.182;2023-02-26T12:58:08;-4.30;57.30
12006;DHT22;6062;47.294;12.182;2023-02-26T13:06:49;-4.30;57.70
12006;DHT22;6062;47.294;12.182;2023-02-26T13:10:00;-4.30;57.90
12006;DHT22;6062;47.294;12.182;2023-02-26T13:20:10;-4.20;58.10
12006;DHT22;6062;47.294;12.182;2023-02-26T13:22:47;-4.10;58.00
12006;DHT22;6062;47.294;12.182;2023-02-26T13:28:36;-4.20;58.00
12006;DHT22;6062;47.294;12.182;2023-02-26T13:31:17;-4.20;57.90
12006;DHT22;6062;47.294;12.182;2023-02-26T13:34:01;-4.30;57.60
12006;DHT22;6062;47.294;12.182;2023-02-26T13:36:32;-4.40;57.60
12006;DHT22;6062;47.294;12.182;2023-02-26T13:39:15;-4.50;58.30
12006;DHT22;6062;47.294;12.182;2023-02-26T13:53:04;-3.70;58.70
12006;DHT22;6062;47.294;12.182;2023-02-26T13:55:52;-3.70;58.10
12006;DHT22;6062;47.294;12.182;2023-02-26T14:01:15;-3.80;57.30
12006;DHT22;6062;47.294;12.182;2023-02-26T14:06:45;-4.00;57.70
12006;DHT22;6062;47.294;12.182;2023-02-26T14:14:23;-4.20;58.00
12006;DHT22;6062;47.294;12.182;2023-02-26T14:19:42;-4.50;58.00
12006;DHT22;6062;47.294;12.182;2023-02-26T14:22:36;-4.70;58.20
12006;DHT22;6062;47.294;12.182;2023-02-26T14:25:18;-4.90;58.30
12006;DHT22;6062;47.294;12.182;2023-02-26T14:30:57;-5.30;59.00
12006;DHT22;6062;47.294;12.182;2023-02-26T14:39:05;-5.60;59.80
12006;DHT22;6062;47.294;12.182;2023-02-26T14:41:39;-5.70;60.00
12006;DHT22;6062;47.294;12.182;2023-02-26T14:44:18;-5.80;60.20
12006;DHT22;6062;47.294;12.182;2023-02-26T14:46:49;-5.90;60.50
12006;DHT22;6062;47.294;12.182;2023-02-26T14:49:28;-6.00;60.70
12006;DHT22;6062;47.294;12.182;2023-02-26T14:55:38;-6.10;61.10
12006;DHT22;6062;47.294;12.182;2023-02-26T15:01:41;-6.20;61.50
12006;DHT22;6062;47.294;12.182;2023-02-26T15:07:40;-6.40;61.90
12006;DHT22;6062;47.294;12.182;2023-02-26T15:15:51;-6.60;62.90
12006;DHT22;6062;47.294;12.182;2023-02-26T15:21:23;-6.60;63.20
12006;DHT22;6062;47.294;12.182;2023-02-26T15:23:56;-6.60;62.90
12006;DHT22;6062;47.294;12.182;2023-02-26T15:26:30;-6.50;63.30
12006;DHT22;6062;47.294;12.182;2023-02-26T15:29:00;-6.50;63.60
12006;DHT22;6062;47.294;12.182;2023-02-26T15:31:45;-6.50;63.50
12006;DHT22;6062;47.294;12.182;2023-02-26T15:34:19;-6.50;63.40
12006;DHT22;6062;47.294;12.182;2023-02-26T15:36:48;-6.50;63.20
12006;DHT22;6062;47.294;12.182;2023-02-26T15:39:16;-6.50;63.20
12006;DHT22;6062;47.294;12.182;2023-02-26T15:41:46;-6.60;63.30
12006;DHT22;6062;47.294;12.182;2023-02-26T15:44:17;-6.70;63.60
12006;DHT22;6062;47.294;12.182;2023-02-26T15:46:49;-6.80;64.60
12006;DHT22;6062;47.294;12.182;2023-02-26T15:49:33;-6.90;63.90
12006;DHT22;6062;47.294;12.182;2023-02-26T15:52:04;-7.00;64.30
12006;DHT22;6062;47.294;12.182;2023-02-26T15:54:42;-7.10;64.60
12006;DHT22;6062;47.294;12.182;2023-02-26T15:57:13;-7.20;64.80
12006;DHT22;6062;47.294;12.182;2023-02-26T15:59:48;-7.20;65.00
12006;DHT22;6062;47.294;12.182;2023-02-26T16:02:23;-7.20;65.10
12006;DHT22;6062;47.294;12.182;2023-02-26T16:04:52;-7.20;65.30
12006;DHT22;6062;47.294;12.182;2023-02-26T16:07:18;-7.20;65.30
12006;DHT22;6062;47.294;12.182;2023-02-26T16:09:46;-7.30;65.40
12006;DHT22;6062;47.294;12.182;2023-02-26T16:12:28;-7.30;65.40
12006;DHT22;6062;47.294;12.182;2023-02-26T16:15:03;-7.30;65.70
12006;DHT22;6062;47.294;12.182;2023-02-26T16:17:39;-7.30;65.70
12006;DHT22;6062;47.294;12.182;2023-02-26T16:20:19;-7.40;65.70
12006;DHT22;6062;47.294;12.182;2023-02-26T16:22:54;-7.40;65.70
12006;DHT22;6062;47.294;12.182;2023-02-26T16:25:37;-7.40;66.00
12006;DHT22;6062;47.294;12.182;2023-02-26T16:28:12;-7.40;66.00
12006;DHT22;6062;47.294;12.182;2023-02-26T16:30:43;-7.40;65.90
12006;DHT22;6062;47.294;12.182;2023-02-26T16:33:14;-7.40;65.70
12006;DHT22;6062;47.294;12.182;2023-02-26T16:35:45;-7.40;65.70
12006;DHT22;6062;47.294;12.182;2023-02-26T16:38:31;-7.50;65.60
12006;DHT22;6062;47.294;12.182;2023-02-26T16:41:08;-7.50;65.60
12006;DHT22;6062;47.294;12.182;2023-02-26T16:43:53;-7.60;65.70
12006;DHT22;6062;47.294;12.182;2023-02-26T16:46:36;-7.60;65.90
12006;DHT22;6062;47.294;12.182;2023-02-26T16:49:22;-7.60;65.90
12006;DHT22;6062;47.294;12.182;2023-02-26T16:51:56;-7.70;66.00
12006;DHT22;6062;47.294;12.182;2023-02-26T16:54:34;-7.60;66.20
12006;DHT22;6062;47.294;12.182;2023-02-26T16:57:03;-7.60;66.30
12006;DHT22;6062;47.294;12.182;2023-02-26T16:59:35;-7.60;66.20
12006;DHT22;6062;47.294;12.182;2023-02-26T17:02:26;-7.70;66.10
12006;DHT22;6062;47.294;12.182;2023-02-26T17:05:02;-7.70;66.30
12006;DHT22;6062;47.294;12.182;2023-02-26T17:07:44;-7.80;66.30
12006;DHT22;6062;47.294;12.182;2023-02-26T17:10:22;-7.80;66.40
12006;DHT22;6062;47.294;12.182;2023-02-26T17:13:02;-7.80;66.40
12006;DHT22;6062;47.294;12.182;2023-02-26T17:15:38;-7.90;66.60
12006;DHT22;6062;47.294;12.182;2023-02-26T17:18:05;-7.90;66.70
12006;DHT22;6062;47.294;12.182;2023-02-26T17:20:33;-7.90;66.90
12006;DHT22;6062;47.294;12.182;2023-02-26T17:23:01;-7.90;66.90
12006;DHT22;6062;47.294;12.182;2023-02-26T17:25:37;-7.90;67.00
12006;DHT22;6062;47.294;12.182;2023-02-26T17:28:07;-7.90;67.30
12006;DHT22;6062;47.294;12.182;2023-02-26T17:30:36;-7.90;67.20
12006;DHT22;6062;47.294;12.182;2023-02-26T17:33:02;-7.90;67.10
12006;DHT22;6062;47.294;12.182;2023-02-26T17:35:29;-7.90;67.00
12006;DHT22;6062;47.294;12.182;2023-02-26T17:37:56;-7.90;67.00
12006;DHT22;6062;47.294;12.182;2023-02-26T17:40:23;-7.90;67.00
12006;DHT22;6062;47.294;12.182;2023-02-26T17:42:51;-7.80;67.10
12006;DHT22;6062;47.294;12.182;2023-02-26T17:45:18;-7.80;67.20
12006;DHT22;6062;47.294;12.182;2023-02-26T17:47:45;-7.80;67.10
12006;DHT22;6062;47.294;12.182;2023-02-26T17:53:02;-7.80;66.90
12006;DHT22;6062;47.294;12.182;2023-02-26T17:55:28;-7.80;66.70
12006;DHT22;6062;47.294;12.182;2023-02-26T17:57:55;-7.80;66.70
12006;DHT22;6062;47.294;12.182;2023-02-26T18:00:22;-7.80;66.80
12006;DHT22;6062;47.294;12.182;2023-02-26T18:02:48;-7.90;67.00
12006;DHT22;6062;47.294;12.182;2023-02-26T18:05:16;-7.90;67.10
12006;DHT22;6062;47.294;12.182;2023-02-26T18:07:44;-7.90;67.30
12006;DHT22;6062;47.294;12.182;2023-02-26T18:10:22;-7.90;67.40
12006;DHT22;6062;47.294;12.182;2023-02-26T18:12:48;-7.80;67.40
12006;DHT22;6062;47.294;12.182;2023-02-26T18:15:15;-7.80;67.40
12006;DHT22;6062;47.294;12.182;2023-02-26T18:17:41;-7.80;67.50
12006;DHT22;6062;47.294;12.182;2023-02-26T18:20:17;-7.80;67.50
12006;DHT22;6062;47.294;12.182;2023-02-26T18:22:47;-7.70;67.60
12006;DHT22;6062;47.294;12.182;2023-02-26T18:25:14;-7.70;67.40
12006;DHT22;6062;47.294;12.182;2023-02-26T18:27:41;-7.70;67.10
12006;DHT22;6062;47.294;12.182;2023-02-26T18:30:20;-7.70;67.00
12006;DHT22;6062;47.294;12.182;2023-02-26T18:32:47;-7.70;67.00
12006;DHT22;6062;47.294;12.182;2023-02-26T18:35:13;-7.70;67.00
12006;DHT22;6062;47.294;12.182;2023-02-26T18:37:42;-7.60;67.30
12006;DHT22;6062;47.294;12.182;2023-02-26T18:40:12;-7.60;67.10
12006;DHT22;6062;47.294;12.182;2023-02-26T18:42:41;-7.60;67.10
12006;DHT22;6062;47.294;12.182;2023-02-26T18:45:07;-7.60;67.10
12006;DHT22;6062;47.294;12.182;2023-02-26T18:47:36;-7.60;67.10
12006;DHT22;6062;47.294;12.182;2023-02-26T18:50:03;-7.60;67.10
12006;DHT22;6062;47.294;12.182;2023-02-26T18:52:29;-7.60;67.40
12006;DHT22;6062;47.294;12.182;2023-02-26T18:54:55;-7.60;67.20
12006;DHT22;6062;47.294;12.182;2023-02-26T18:57:20;-7.60;67.20
12006;DHT22;6062;47.294;12.182;2023-02-26T18:59:47;-7.60;67.30
12006;DHT22;6062;47.294;12.182;2023-02-26T19:02:13;-7.60;67.40